This is the latest recevied weather packets stored in our database for station/object SP3OTE-2. If no packets are shown the sender has not sent any weather packets the latest 10 day(s).
| Time | Temp. | Humidity | Pressure | Rain* | Wind** | Luminosity | Snow |
|---|---|---|---|---|---|---|---|
| 1777994313 | 31.67° C | 27% | 1005.2 hPa | - | - | - | - |
| 1777993713 | 31.67° C | 27% | 1005.2 hPa | - | - | - | - |
| 1777993113 | 33.33° C | 25% | 1005.2 hPa | - | - | - | - |
| 1777992512 | 33.89° C | 25% | 1005.2 hPa | - | - | - | - |
| 1777991912 | 33.89° C | 24% | 1005.2 hPa | - | - | - | - |
| 1777991312 | 34.44° C | 25% | 1005.2 hPa | - | - | - | - |
| 1777990712 | 33.33° C | 25% | 1005.4 hPa | - | - | - | - |
| 1777989511 | 32.78° C | 25% | 1005.5 hPa | - | - | - | - |
| 1777988911 | 33.33° C | 25% | 1005.6 hPa | - | - | - | - |
| 1777988310 | 32.78° C | 25% | 1005.7 hPa | - | - | - | - |
| 1777987710 | 32.22° C | 25% | 1005.8 hPa | - | - | - | - |
| 1777987110 | 32.78° C | 27% | 1005.8 hPa | - | - | - | - |
| 1777986510 | 31.67° C | 27% | 1005.9 hPa | - | - | - | - |
| 1777985910 | 31.11° C | 28% | 1006.1 hPa | - | - | - | - |
| 1777985308 | 0° C | 100% | 0 hPa | - | - | - | - |
| 1777981015 | 28.33° C | 28% | 1006.9 hPa | - | - | - | - |
| 1777980415 | 28.33° C | 28% | 1006.9 hPa | - | - | - | - |
| 1777979815 | 28.89° C | 28% | 1007.1 hPa | - | - | - | - |
| 1777979215 | 27.78° C | 29% | 1007 hPa | - | - | - | - |
| 1777978614 | 28.33° C | 28% | 1007.2 hPa | - | - | - | - |
| 1777978014 | 27.78° C | 29% | 1007.3 hPa | - | - | - | - |
| 1777977414 | 27.78° C | 30% | 1007.4 hPa | - | - | - | - |
| 1777976813 | 26.67° C | 31% | 1007.6 hPa | - | - | - | - |
| 1777976213 | 26.11° C | 31% | 1007.7 hPa | - | - | - | - |
| 1777975613 | 25.56° C | 32% | 1007.8 hPa | - | - | - | - |
* Rain since midnight (hover to see other rain measurements)
** Current wind speed in m/s (hover to see current wind gust speed)